createdAt,value
2018-01-18T00:01:10.202Z,1002.63
2018-01-18T00:02:10.233Z,1002.64
2018-01-18T00:04:04.759Z,1002.61
2018-01-18T00:05:04.768Z,1002.58
2018-01-18T00:06:59.167Z,1002.59
2018-01-18T00:07:59.268Z,1002.61
2018-01-18T00:10:02.100Z,1002.52
2018-01-18T00:10:59.726Z,1002.50
2018-01-18T00:12:55.255Z,1002.44
2018-01-18T00:13:54.457Z,1002.46
2018-01-18T00:15:48.903Z,1002.42
2018-01-18T00:16:49.984Z,1002.42
2018-01-18T00:18:42.305Z,1002.34
2018-01-18T00:19:42.312Z,1002.42
2018-01-18T00:21:39.267Z,1002.36
2018-01-18T00:22:38.420Z,1002.36
2018-01-18T00:24:31.656Z,1002.30
2018-01-18T00:25:32.187Z,1002.32
2018-01-18T00:27:25.722Z,1002.30
2018-01-18T00:28:25.098Z,1002.26
2018-01-18T00:30:19.667Z,1002.26
2018-01-18T00:31:19.736Z,1002.22
2018-01-18T00:33:14.532Z,1002.21
2018-01-18T00:34:14.529Z,1002.17
2018-01-18T00:36:08.987Z,1002.18
2018-01-18T00:37:09.064Z,1002.15
2018-01-18T00:39:03.393Z,1002.09
2018-01-18T00:40:03.406Z,1002.03
2018-01-18T00:41:58.169Z,1002.04
2018-01-18T00:42:57.393Z,1001.98
2018-01-18T00:44:52.281Z,1001.94
2018-01-18T00:45:51.723Z,1001.94
2018-01-18T00:47:46.826Z,1001.89
2018-01-18T00:48:46.386Z,1001.87
2018-01-18T00:50:41.747Z,1001.76
2018-01-18T00:51:40.346Z,1001.77
2018-01-18T00:53:34.572Z,1001.74
2018-01-18T00:54:34.583Z,1001.70
2018-01-18T00:56:28.502Z,1001.65
2018-01-18T00:57:28.394Z,1001.60
2018-01-18T00:59:23.631Z,1001.59
2018-01-18T01:00:22.629Z,1001.55
2018-01-18T01:02:16.484Z,1001.56
2018-01-18T01:03:16.492Z,1001.59
2018-01-18T01:05:11.784Z,1001.43
2018-01-18T01:06:10.766Z,1001.45
2018-01-18T01:08:18.035Z,1001.38
2018-01-18T01:09:17.731Z,1001.37
2018-01-18T01:11:11.372Z,1001.29
2018-01-18T01:12:11.387Z,1001.30
2018-01-18T01:14:04.817Z,1001.17
2018-01-18T01:15:04.811Z,1001.11
2018-01-18T01:17:00.992Z,1001.04
2018-01-18T01:18:00.962Z,1000.96
2018-01-18T01:19:57.533Z,1000.98
2018-01-18T01:20:55.479Z,1000.92
2018-01-18T01:22:49.887Z,1000.88
2018-01-18T01:23:49.077Z,1000.84
2018-01-18T01:25:42.546Z,1000.82
2018-01-18T01:26:42.503Z,1000.78
2018-01-18T01:28:36.961Z,1000.75
2018-01-18T01:29:37.449Z,1000.70
2018-01-18T01:31:32.404Z,1000.73
2018-01-18T01:32:32.393Z,1000.72
2018-01-18T01:34:27.901Z,1000.62
2018-01-18T01:35:26.501Z,1000.66
2018-01-18T01:37:21.456Z,1000.59
2018-01-18T01:38:21.174Z,1000.60
2018-01-18T01:40:15.598Z,1000.67
2018-01-18T01:41:15.418Z,1000.61
2018-01-18T01:43:08.816Z,1000.57
2018-01-18T01:44:09.393Z,1000.49
2018-01-18T01:46:03.698Z,1000.47
2018-01-18T01:47:03.180Z,1000.46
2018-01-18T01:48:57.852Z,1000.37
2018-01-18T01:49:57.607Z,1000.40
2018-01-18T01:51:52.058Z,1000.28
2018-01-18T01:52:52.998Z,1000.20
2018-01-18T01:54:48.025Z,1000.16
2018-01-18T01:55:47.149Z,1000.13
2018-01-18T01:57:41.606Z,1000.06
2018-01-18T01:58:40.675Z,999.97
2018-01-18T02:00:35.088Z,999.77
2018-01-18T02:01:35.090Z,999.71
2018-01-18T02:03:28.958Z,999.66
2018-01-18T02:04:29.547Z,999.68
2018-01-18T02:06:23.328Z,999.66
2018-01-18T02:07:22.556Z,999.68
2018-01-18T02:09:16.500Z,999.66
2018-01-18T02:10:15.971Z,999.67
2018-01-18T02:12:09.421Z,999.69
2018-01-18T02:13:09.930Z,999.70
2018-01-18T02:15:03.354Z,999.66
2018-01-18T02:16:02.832Z,999.61
2018-01-18T02:17:58.305Z,999.61
2018-01-18T02:18:57.460Z,999.57
2018-01-18T02:20:51.893Z,999.60
2018-01-18T02:21:51.039Z,999.64
2018-01-18T02:23:45.449Z,999.65
2018-01-18T02:24:45.442Z,999.57
2018-01-18T02:26:39.887Z,999.43
2018-01-18T02:27:40.392Z,999.39
2018-01-18T02:29:34.385Z,999.29
2018-01-18T02:30:34.325Z,999.27
2018-01-18T02:32:30.182Z,999.24
2018-01-18T02:33:28.861Z,999.22
2018-01-18T02:35:24.787Z,999.16
2018-01-18T02:36:23.348Z,999.14
2018-01-18T02:38:18.748Z,999.07
2018-01-18T02:39:17.823Z,998.99
2018-01-18T02:41:12.765Z,998.95
2018-01-18T02:42:11.162Z,998.92
2018-01-18T02:44:05.666Z,998.89
2018-01-18T02:45:04.830Z,998.83
2018-01-18T02:47:00.195Z,998.72
2018-01-18T02:47:59.669Z,998.74
2018-01-18T02:49:53.969Z,998.60
2018-01-18T02:50:53.942Z,998.48
2018-01-18T02:52:49.939Z,998.38
2018-01-18T03:00:52.545Z,998.14
2018-01-18T03:01:52.600Z,998.12
2018-01-18T03:03:47.287Z,998.02
2018-01-18T03:04:47.969Z,997.96
2018-01-18T03:06:42.865Z,997.85
2018-01-18T03:07:41.574Z,997.78
2018-01-18T03:09:36.567Z,997.69
2018-01-18T03:10:36.395Z,997.63
2018-01-18T03:12:31.066Z,997.46
2018-01-18T03:13:31.057Z,997.37
2018-01-18T03:15:27.552Z,997.31
2018-01-18T03:16:25.066Z,997.27
2018-01-18T03:18:19.603Z,997.23
2018-01-18T03:19:19.616Z,997.15
2018-01-18T03:21:13.030Z,997.04
2018-01-18T03:22:13.006Z,997.03
2018-01-18T03:24:06.973Z,996.91
2018-01-18T03:25:06.449Z,996.82
2018-01-18T03:27:03.908Z,996.69
2018-01-18T03:28:03.917Z,996.63
2018-01-18T03:34:21.705Z,996.29
2018-01-18T03:35:20.858Z,996.24
2018-01-18T03:37:17.312Z,996.14
2018-01-18T03:38:15.701Z,996.10
2018-01-18T03:40:12.297Z,995.96
2018-01-18T03:41:12.596Z,995.95
2018-01-18T03:43:06.135Z,995.83
2018-01-18T03:44:06.104Z,995.81
2018-01-18T03:46:00.553Z,995.69
2018-01-18T03:47:00.591Z,995.68
2018-01-18T03:48:55.476Z,995.51
2018-01-18T03:49:55.958Z,995.42
2018-01-18T03:51:50.973Z,995.33
2018-01-18T03:52:51.388Z,995.22
2018-01-18T03:54:43.995Z,995.10
2018-01-18T03:55:44.621Z,995.03
2018-01-18T03:57:39.248Z,994.92
2018-01-18T03:58:39.915Z,994.84
2018-01-18T04:00:33.475Z,994.74
2018-01-18T04:01:33.495Z,994.71
2018-01-18T04:03:30.489Z,994.61
2018-01-18T04:04:29.566Z,994.56
2018-01-18T04:06:24.056Z,994.46
2018-01-18T04:07:24.040Z,994.47
2018-01-18T04:09:18.502Z,994.35
2018-01-18T04:10:18.446Z,994.22
2018-01-18T04:12:26.938Z,994.24
2018-01-18T04:13:25.457Z,994.15
2018-01-18T04:15:19.923Z,994.11
2018-01-18T04:16:19.895Z,994.04
2018-01-18T04:18:15.865Z,994.01
2018-01-18T04:19:15.829Z,993.91
2018-01-18T04:21:09.772Z,993.85
2018-01-18T04:22:09.243Z,993.82
2018-01-18T04:24:05.696Z,993.74
2018-01-18T04:25:05.178Z,993.61
2018-01-18T04:27:01.161Z,993.59
2018-01-18T04:28:01.142Z,993.51
2018-01-18T04:29:55.598Z,993.34
2018-01-18T04:30:55.590Z,993.30
2018-01-18T04:32:49.985Z,993.09
2018-01-18T04:33:49.989Z,993.03
2018-01-18T04:35:46.959Z,992.90
2018-01-18T04:36:46.902Z,992.99
2018-01-18T04:38:42.885Z,992.77
2018-01-18T04:39:42.845Z,992.77
2018-01-18T04:41:38.797Z,992.72
2018-01-18T04:42:38.766Z,992.62
2018-01-18T04:44:35.217Z,992.58
2018-01-18T04:45:34.680Z,992.51
2018-01-18T04:47:31.635Z,992.36
2018-01-18T04:48:31.630Z,992.34
2018-01-18T04:50:28.109Z,992.19
2018-01-18T04:51:27.107Z,992.25
2018-01-18T04:53:22.509Z,992.18
2018-01-18T04:54:23.024Z,992.06
2018-01-18T04:56:18.416Z,992.00
2018-01-18T04:57:18.418Z,991.96
2018-01-18T04:59:14.383Z,991.95
2018-01-18T05:00:14.856Z,991.92
2018-01-18T05:02:10.793Z,991.85
2018-01-18T05:03:10.278Z,991.79
2018-01-18T05:05:06.237Z,991.62
2018-01-18T05:06:06.216Z,991.64
2018-01-18T05:08:02.182Z,991.67
2018-01-18T05:09:02.144Z,991.65
2018-01-18T05:10:58.615Z,991.50
2018-01-18T05:11:58.044Z,991.43
2018-01-18T05:13:54.016Z,991.33
2018-01-18T05:14:53.974Z,991.31
2018-01-18T05:16:50.456Z,991.20
2018-01-18T05:17:49.888Z,991.12
2018-01-18T05:19:45.840Z,991.11
2018-01-18T05:20:45.836Z,991.10
2018-01-18T05:22:41.293Z,990.95
2018-01-18T05:23:41.195Z,990.92
2018-01-18T05:25:34.679Z,990.86
2018-01-18T05:26:34.694Z,990.82
2018-01-18T05:28:29.104Z,990.69
2018-01-18T05:29:29.622Z,990.72
2018-01-18T05:31:24.561Z,990.64
2018-01-18T05:32:24.040Z,990.62
2018-01-18T05:34:18.986Z,990.60
2018-01-18T05:35:17.960Z,990.62
2018-01-18T05:37:14.416Z,990.46
2018-01-18T05:38:13.905Z,990.48
2018-01-18T05:40:10.771Z,990.36
2018-01-18T05:41:09.841Z,990.38
2018-01-18T05:43:05.804Z,990.36
2018-01-18T05:44:05.720Z,990.23
2018-01-18T05:46:01.678Z,990.12
2018-01-18T05:47:01.655Z,990.08
2018-01-18T05:48:57.613Z,990.09
2018-01-18T05:49:57.599Z,990.12
2018-01-18T05:51:52.550Z,990.24
2018-01-18T05:52:52.002Z,990.26
2018-01-18T05:54:45.440Z,989.78
2018-01-18T05:55:45.418Z,989.78
2018-01-18T05:57:40.879Z,989.96
2018-01-18T05:58:39.857Z,989.99
2018-01-18T06:00:34.293Z,989.94
2018-01-18T06:01:34.803Z,989.92
2018-01-18T06:03:31.723Z,989.87
2018-01-18T06:04:30.729Z,989.73
2018-01-18T06:06:26.082Z,989.72
2018-01-18T06:07:24.631Z,989.74
2018-01-18T06:09:19.094Z,989.55
2018-01-18T06:10:19.052Z,989.49
2018-01-18T06:12:15.504Z,989.23
2018-01-18T06:13:14.983Z,989.29
2018-01-18T06:15:09.420Z,989.23
2018-01-18T06:16:08.387Z,989.14
2018-01-18T06:18:06.853Z,989.14
2018-01-18T06:19:05.210Z,989.08
2018-01-18T06:21:04.136Z,989.04
2018-01-18T06:22:03.240Z,989.07
2018-01-18T06:23:57.672Z,988.80
2018-01-18T06:24:57.638Z,988.80
2018-01-18T06:26:55.019Z,988.83
2018-01-18T06:27:53.591Z,988.94
2018-01-18T06:29:48.535Z,988.88
2018-01-18T06:30:47.999Z,988.74
2018-01-18T06:32:43.922Z,988.74
2018-01-18T06:33:43.921Z,988.60
2018-01-18T06:35:37.348Z,988.73
2018-01-18T06:36:37.334Z,988.63
2018-01-18T06:38:33.309Z,988.62
2018-01-18T06:39:33.251Z,988.53
2018-01-18T06:41:28.216Z,988.39
2018-01-18T06:42:28.634Z,988.34
2018-01-18T06:44:23.124Z,988.14
2018-01-18T06:45:22.099Z,988.12
2018-01-18T06:47:19.584Z,988.08
2018-01-18T06:48:18.559Z,988.07
2018-01-18T06:50:14.033Z,988.16
2018-01-18T06:51:13.985Z,988.04
2018-01-18T06:53:09.945Z,988.01
2018-01-18T06:54:10.427Z,987.93
2018-01-18T06:56:06.344Z,988.06
2018-01-18T06:57:05.801Z,987.96
2018-01-18T06:59:00.266Z,988.01
2018-01-18T07:00:00.240Z,987.91
2018-01-18T07:01:54.652Z,987.74
2018-01-18T07:02:54.666Z,987.87
2018-01-18T07:04:50.036Z,987.92
2018-01-18T07:05:49.088Z,987.82
2018-01-18T07:07:43.503Z,987.85
2018-01-18T07:08:43.513Z,987.79
2018-01-18T07:10:42.971Z,987.81
2018-01-18T07:11:42.465Z,987.83
2018-01-18T07:13:35.969Z,987.94
2018-01-18T07:14:35.974Z,987.89
2018-01-18T07:16:33.430Z,987.79
2018-01-18T07:17:32.417Z,987.77
2018-01-18T07:19:26.352Z,987.65
2018-01-18T07:20:26.336Z,987.72
2018-01-18T07:22:20.738Z,987.57
2018-01-18T07:23:20.719Z,987.58
2018-01-18T07:25:15.150Z,987.58
2018-01-18T07:26:15.159Z,987.60
2018-01-18T07:28:09.614Z,987.58
2018-01-18T07:29:09.591Z,987.57
2018-01-18T07:31:07.049Z,987.30
2018-01-18T07:32:06.066Z,987.50
2018-01-18T07:34:02.983Z,987.37
2018-01-18T07:35:01.485Z,987.45
2018-01-18T07:36:55.930Z,987.27
2018-01-18T07:37:55.904Z,987.25
2018-01-18T07:39:50.357Z,987.35
2018-01-18T07:40:50.328Z,986.95
2018-01-18T07:42:46.259Z,987.33
2018-01-18T07:43:46.255Z,987.24
2018-01-18T07:45:40.712Z,987.17
2018-01-18T07:46:41.627Z,986.93
2018-01-18T07:48:36.734Z,987.13
2018-01-18T07:49:36.891Z,987.36
2018-01-18T07:51:30.376Z,987.10
2018-01-18T07:52:29.615Z,987.24
2018-01-18T07:54:24.115Z,987.23
2018-01-18T07:55:24.074Z,987.10
2018-01-18T07:57:34.081Z,987.14
2018-01-18T07:58:33.672Z,987.15
2018-01-18T08:01:01.949Z,987.05
2018-01-18T08:01:53.897Z,987.02
2018-01-18T08:03:49.833Z,986.89
2018-01-18T08:04:49.832Z,986.88
2018-01-18T08:06:46.439Z,986.91
2018-01-18T08:09:51.883Z,986.94
2018-01-18T08:12:22.863Z,986.85
2018-01-18T08:13:22.353Z,986.73
2018-01-18T08:15:18.533Z,986.92
2018-01-18T08:16:18.526Z,986.89
2018-01-18T08:18:13.668Z,986.92
2018-01-18T08:19:13.412Z,986.71
2018-01-18T08:21:11.777Z,986.58
2018-01-18T08:22:11.267Z,986.69
2018-01-18T08:24:08.440Z,986.58
2018-01-18T08:25:05.027Z,986.80
2018-01-18T08:27:00.068Z,986.67
2018-01-18T08:28:00.477Z,986.68
2018-01-18T08:29:55.561Z,986.83
2018-01-18T08:30:55.520Z,986.71
2018-01-18T08:32:51.053Z,986.62
2018-01-18T08:33:50.492Z,986.66
2018-01-18T08:35:46.421Z,986.43
2018-01-18T08:36:46.401Z,986.56
2018-01-18T08:38:42.860Z,986.66
2018-01-18T08:39:41.992Z,986.69
2018-01-18T08:41:38.300Z,986.73
2018-01-18T08:42:37.781Z,986.62
2018-01-18T08:44:34.232Z,986.64
2018-01-18T08:45:33.723Z,986.51
2018-01-18T08:47:29.669Z,986.68
2018-01-18T08:48:29.659Z,986.67
2018-01-18T08:50:24.120Z,986.37
2018-01-18T08:51:24.105Z,986.48
2018-01-18T08:53:19.051Z,986.43
2018-01-18T08:54:18.533Z,986.61
2018-01-18T08:56:13.908Z,986.46
2018-01-18T08:57:12.983Z,986.34
2018-01-18T08:59:07.452Z,986.65
2018-01-18T09:00:07.941Z,986.14
2018-01-18T09:02:01.876Z,986.51
2018-01-18T09:03:01.877Z,986.37
2018-01-18T09:04:56.323Z,986.42
2018-01-18T09:05:56.314Z,986.38
2018-01-18T09:07:52.784Z,986.56
2018-01-18T09:08:52.266Z,986.31
2018-01-18T09:10:47.211Z,986.25
2018-01-18T09:11:46.681Z,986.35
2018-01-18T09:13:42.662Z,986.58
2018-01-18T09:14:41.129Z,986.47
2018-01-18T09:16:35.569Z,986.44
2018-01-18T09:17:35.580Z,986.55
2018-01-18T09:19:30.029Z,986.54
2018-01-18T09:20:30.533Z,986.68
2018-01-18T09:22:25.470Z,986.39
2018-01-18T09:23:24.463Z,986.40
2018-01-18T09:25:20.869Z,986.63
2018-01-18T09:26:20.356Z,986.64
2018-01-18T09:28:14.832Z,986.92
2018-01-18T09:29:14.799Z,986.51
2018-01-18T09:31:10.763Z,986.86
2018-01-18T09:32:10.743Z,986.75
2018-01-18T09:34:05.756Z,986.80
2018-01-18T09:35:05.248Z,986.86
2018-01-18T09:37:00.164Z,986.95
2018-01-18T09:38:00.645Z,986.91
2018-01-18T09:39:55.618Z,987.11
2018-01-18T09:40:55.585Z,986.87
2018-01-18T09:42:50.539Z,987.19
2018-01-18T09:43:50.037Z,986.62
2018-01-18T09:45:46.011Z,987.28
2018-01-18T09:46:45.964Z,987.20
2018-01-18T09:48:41.920Z,987.23
2018-01-18T09:49:42.419Z,987.21
2018-01-18T09:51:37.903Z,987.43
2018-01-18T09:52:37.853Z,987.65
2018-01-18T09:54:34.313Z,987.54
2018-01-18T09:55:33.804Z,987.47
2018-01-18T09:57:30.265Z,987.93
2018-01-18T09:58:29.743Z,987.24
2018-01-18T10:00:26.189Z,987.67
2018-01-18T10:01:26.196Z,987.81
2018-01-18T10:03:22.657Z,987.90
2018-01-18T10:04:21.611Z,987.76
2018-01-18T10:06:18.571Z,987.93
2018-01-18T10:07:18.072Z,987.96
2018-01-18T10:09:14.525Z,988.14
2018-01-18T10:10:13.509Z,988.11
2018-01-18T10:12:09.446Z,987.92
2018-01-18T10:13:09.453Z,987.99
2018-01-18T10:15:04.428Z,988.39
2018-01-18T10:16:04.398Z,988.34
2018-01-18T10:17:58.329Z,988.42
2018-01-18T10:18:58.318Z,988.44
2018-01-18T10:20:52.767Z,988.61
2018-01-18T10:21:52.770Z,988.60
2018-01-18T10:23:48.738Z,988.92
2018-01-18T10:24:48.738Z,988.35
2018-01-18T10:26:44.630Z,988.61
2018-01-18T10:27:44.662Z,988.90
2018-01-18T10:29:40.638Z,988.84
2018-01-18T10:30:40.615Z,989.11
2018-01-18T10:32:38.075Z,988.84
2018-01-18T10:33:36.493Z,989.40
2018-01-18T10:35:32.475Z,989.64
2018-01-18T10:36:32.950Z,989.53
2018-01-18T10:38:27.394Z,989.52
2018-01-18T10:39:26.883Z,989.94
2018-01-18T10:41:21.477Z,989.55
2018-01-18T10:42:21.320Z,989.93
2018-01-18T10:44:18.776Z,990.05
2018-01-18T10:45:17.284Z,990.07
2018-01-18T10:47:14.220Z,990.07
2018-01-18T10:48:13.474Z,990.21
2018-01-18T10:50:09.435Z,990.09
2018-01-18T10:51:09.346Z,990.13
2018-01-18T10:53:03.788Z,990.76
2018-01-18T10:54:03.745Z,990.49
2018-01-18T10:56:00.230Z,990.44
2018-01-18T10:57:00.087Z,990.20
2018-01-18T10:58:56.535Z,990.77
2018-01-18T10:59:55.943Z,990.85
2018-01-18T11:01:51.886Z,991.17
2018-01-18T11:02:52.451Z,990.84
2018-01-18T11:04:48.848Z,990.94
2018-01-18T11:05:48.836Z,990.81
2018-01-18T11:07:43.806Z,991.02
2018-01-18T11:08:43.813Z,991.25
2018-01-18T11:10:40.292Z,991.73
2018-01-18T11:11:39.727Z,991.44
2018-01-18T11:13:35.691Z,991.76
2018-01-18T11:14:35.679Z,991.60
2018-01-18T11:16:32.128Z,992.08
2018-01-18T11:17:31.664Z,991.83
2018-01-18T11:19:26.603Z,992.03
2018-01-18T11:20:26.113Z,992.09
2018-01-18T11:22:22.080Z,992.02
2018-01-18T11:23:21.995Z,992.02
2018-01-18T11:25:18.471Z,992.04
2018-01-18T11:26:18.470Z,992.05
2018-01-18T11:28:13.925Z,992.16
2018-01-18T11:29:13.873Z,992.02
2018-01-18T11:31:08.829Z,992.12
2018-01-18T11:32:08.303Z,992.11
2018-01-18T11:34:02.767Z,992.48
2018-01-18T11:35:02.737Z,992.51
2018-01-18T11:36:57.192Z,992.76
2018-01-18T11:37:57.176Z,992.55
2018-01-18T11:39:53.614Z,992.46
2018-01-18T11:40:53.111Z,992.59
2018-01-18T11:42:49.098Z,992.79
2018-01-18T11:43:49.006Z,992.55
2018-01-18T11:45:44.973Z,992.59
2018-01-18T11:46:44.978Z,992.70
2018-01-18T11:48:39.449Z,992.67
2018-01-18T11:49:40.356Z,992.46
2018-01-18T11:51:34.350Z,992.37
2018-01-18T11:52:33.853Z,992.46
2018-01-18T11:54:28.309Z,992.69
2018-01-18T11:55:28.298Z,992.84
2018-01-18T11:57:22.250Z,992.69
2018-01-18T11:58:21.731Z,992.88
2018-01-18T12:00:18.157Z,993.02
2018-01-18T12:01:17.678Z,992.96
2018-01-18T12:03:14.100Z,992.93
2018-01-18T12:04:13.543Z,993.18
2018-01-18T12:06:09.514Z,993.12
2018-01-18T12:07:09.477Z,993.22
2018-01-18T12:09:05.919Z,993.19
2018-01-18T12:10:05.396Z,993.34
2018-01-18T12:11:59.872Z,993.31
2018-01-18T12:12:59.842Z,993.45
2018-01-18T12:14:56.286Z,993.46
2018-01-18T12:15:55.781Z,993.45
2018-01-18T12:17:52.246Z,993.65
2018-01-18T12:18:51.700Z,993.16
2018-01-18T12:20:46.131Z,993.59
2018-01-18T12:21:46.676Z,993.70
2018-01-18T12:23:42.593Z,993.73
2018-01-18T12:24:42.078Z,993.72
2018-01-18T12:26:39.024Z,993.68
2018-01-18T12:27:38.954Z,993.64
2018-01-18T12:29:33.984Z,993.73
2018-01-18T12:30:33.966Z,993.82
2018-01-18T12:32:31.433Z,994.04
2018-01-18T12:33:29.881Z,994.06
2018-01-18T12:35:25.836Z,994.16
2018-01-18T12:36:26.328Z,994.08
2018-01-18T12:38:20.247Z,994.13
2018-01-18T12:39:20.256Z,993.90
2018-01-18T12:41:14.690Z,994.33
2018-01-18T12:42:14.685Z,994.31
2018-01-18T12:44:11.138Z,994.31
2018-01-18T12:45:10.651Z,994.46
2018-01-18T12:47:06.586Z,994.58
2018-01-18T12:48:06.542Z,994.50
2018-01-18T12:50:01.523Z,994.34
2018-01-18T12:51:00.973Z,994.40
2018-01-18T12:52:57.436Z,994.66
2018-01-18T12:53:56.893Z,994.67
2018-01-18T12:55:51.316Z,994.47
2018-01-18T12:56:51.829Z,994.57
2018-01-18T12:58:47.762Z,994.59
2018-01-18T12:59:47.256Z,994.73
2018-01-18T13:01:43.715Z,994.80
2018-01-18T13:02:43.185Z,994.58
2018-01-18T13:04:39.189Z,994.74
2018-01-18T13:05:39.148Z,994.73
2018-01-18T13:07:32.605Z,994.81
2018-01-18T13:08:32.572Z,995.09
2018-01-18T13:10:28.542Z,995.08
2018-01-18T13:11:28.520Z,995.03
2018-01-18T13:13:24.491Z,995.06
2018-01-18T13:14:24.975Z,995.16
2018-01-18T13:16:23.847Z,995.27
2018-01-18T13:17:22.390Z,994.99
2018-01-18T13:19:17.336Z,995.36
2018-01-18T13:20:16.827Z,995.26
2018-01-18T13:22:11.292Z,995.14
2018-01-18T13:23:11.268Z,995.29
2018-01-18T13:25:05.731Z,995.26
2018-01-18T13:26:05.712Z,995.43
2018-01-18T13:28:01.166Z,995.58
2018-01-18T13:29:00.150Z,995.36
2018-01-18T13:30:56.621Z,995.35
2018-01-18T13:31:56.064Z,995.47
2018-01-18T13:33:51.023Z,995.38
2018-01-18T13:34:50.525Z,995.46
2018-01-18T13:36:46.986Z,995.51
2018-01-18T13:37:46.435Z,995.39
2018-01-18T13:39:42.896Z,995.57
2018-01-18T13:40:42.884Z,995.69
2018-01-18T13:42:36.768Z,995.62
2018-01-18T13:43:36.768Z,995.51
2018-01-18T13:45:32.695Z,995.46
2018-01-18T13:46:33.240Z,995.65
2018-01-18T13:48:27.183Z,995.50
2018-01-18T13:49:27.145Z,995.59
2018-01-18T13:51:23.091Z,995.63
2018-01-18T13:52:23.063Z,995.52
2018-01-18T13:54:17.485Z,995.62
2018-01-18T13:55:18.005Z,995.80
2018-01-18T13:57:13.458Z,995.70
2018-01-18T13:58:13.431Z,995.71
2018-01-18T14:00:09.348Z,995.78
2018-01-18T14:01:09.393Z,995.63
2018-01-18T14:03:03.750Z,995.67
2018-01-18T14:04:03.742Z,995.67
2018-01-18T14:05:59.724Z,995.88
2018-01-18T14:06:59.663Z,995.91
2018-01-18T14:08:55.596Z,995.83
2018-01-18T14:09:55.599Z,995.81
2018-01-18T14:11:51.570Z,995.93
2018-01-18T14:12:51.511Z,995.76
2018-01-18T14:14:47.479Z,996.03
2018-01-18T14:15:47.449Z,995.98
2018-01-18T14:17:43.926Z,995.98
2018-01-18T14:18:43.387Z,995.88
2018-01-18T14:20:38.342Z,996.01
2018-01-18T14:21:38.344Z,995.97
2018-01-18T14:23:33.765Z,995.99
2018-01-18T14:24:33.775Z,996.01
2018-01-18T14:26:29.710Z,995.97
2018-01-18T14:27:30.220Z,995.98
2018-01-18T14:29:25.640Z,995.89
2018-01-18T14:30:25.634Z,996.10
2018-01-18T14:32:20.111Z,996.01
2018-01-18T14:33:20.595Z,995.83
2018-01-18T14:35:14.467Z,995.98
2018-01-18T14:36:14.467Z,996.03
2018-01-18T14:38:10.442Z,996.07
2018-01-18T14:39:10.390Z,996.13
2018-01-18T14:41:09.350Z,996.17
2018-01-18T14:42:06.357Z,996.27
2018-01-18T14:44:02.791Z,996.22
2018-01-18T14:45:02.793Z,996.30
2018-01-18T14:46:58.725Z,996.24
2018-01-18T14:47:58.223Z,996.24
2018-01-18T14:49:54.150Z,996.29
2018-01-18T14:50:54.135Z,996.21
2018-01-18T14:52:51.590Z,996.38
2018-01-18T14:53:50.587Z,996.34
2018-01-18T14:55:45.006Z,996.43
2018-01-18T14:56:44.479Z,996.44
2018-01-18T14:58:40.444Z,996.49
2018-01-18T14:59:40.412Z,996.53
2018-01-18T15:01:35.364Z,996.51
2018-01-18T15:02:34.863Z,996.50
2018-01-18T15:04:29.352Z,996.56
2018-01-18T15:05:29.325Z,996.59
2018-01-18T15:07:25.440Z,996.64
2018-01-18T15:08:24.268Z,996.60
2018-01-18T15:10:19.693Z,996.71
2018-01-18T15:11:19.727Z,996.62
2018-01-18T15:13:16.167Z,996.60
2018-01-18T15:14:15.616Z,996.56
2018-01-18T15:16:12.073Z,996.65
2018-01-18T15:17:11.547Z,996.61
2018-01-18T15:19:07.495Z,996.84
2018-01-18T15:20:07.544Z,996.80
2018-01-18T15:22:03.947Z,996.73
2018-01-18T15:23:04.429Z,996.76
2018-01-18T15:24:59.474Z,996.86
2018-01-18T15:25:59.928Z,996.78
2018-01-18T15:27:55.896Z,996.77
2018-01-18T15:28:55.386Z,996.85
2018-01-18T15:30:53.872Z,996.88
2018-01-18T15:31:54.326Z,996.91
2018-01-18T15:33:49.440Z,996.83
2018-01-18T15:34:49.364Z,996.85
2018-01-18T15:36:45.295Z,996.93
2018-01-18T15:37:45.347Z,996.89
2018-01-18T15:39:41.735Z,996.94
2018-01-18T15:40:41.217Z,997.05
2018-01-18T15:42:37.116Z,996.89
2018-01-18T15:43:37.137Z,996.94
2018-01-18T15:45:37.067Z,996.91
2018-01-18T15:46:35.183Z,996.94
2018-01-18T15:48:33.194Z,996.92
2018-01-18T15:49:33.125Z,996.91
2018-01-18T15:51:29.092Z,996.98
2018-01-18T15:52:29.086Z,997.04
2018-01-18T15:54:27.582Z,997.06
2018-01-18T15:55:27.171Z,997.06
2018-01-18T15:57:28.545Z,997.09
2018-01-18T15:58:27.699Z,997.09
2018-01-18T16:00:23.781Z,997.11
2018-01-18T16:01:23.763Z,997.13
2018-01-18T16:03:19.730Z,997.19
2018-01-18T16:04:19.703Z,997.18
2018-01-18T16:06:16.168Z,997.23
2018-01-18T16:07:17.076Z,997.24
2018-01-18T16:09:12.067Z,997.26
2018-01-18T16:10:12.086Z,997.24
2018-01-18T16:12:09.646Z,997.28
2018-01-18T16:13:09.622Z,997.26
2018-01-18T16:15:06.034Z,997.30
2018-01-18T16:16:05.514Z,997.29
2018-01-18T16:18:01.981Z,997.32
2018-01-18T16:19:01.967Z,997.29
2018-01-18T16:20:57.369Z,997.29
2018-01-18T16:21:57.369Z,997.28
2018-01-18T16:23:53.846Z,997.30
2018-01-18T16:24:53.306Z,997.34
2018-01-18T16:26:53.102Z,997.37
2018-01-18T16:27:49.757Z,997.42
2018-01-18T16:29:46.913Z,997.44
2018-01-18T16:30:46.890Z,997.40
2018-01-18T16:32:43.327Z,997.46
2018-01-18T16:33:42.760Z,997.41
2018-01-18T16:35:39.707Z,997.41
2018-01-18T16:36:38.686Z,997.43
2018-01-18T16:38:35.630Z,997.42
2018-01-18T16:39:34.651Z,997.45
2018-01-18T16:41:32.652Z,997.46
2018-01-18T16:42:32.608Z,997.48
2018-01-18T16:44:29.091Z,997.43
2018-01-18T16:45:28.521Z,997.42
2018-01-18T16:47:29.466Z,997.43
2018-01-18T16:48:28.940Z,997.47
2018-01-18T16:50:24.856Z,997.47
2018-01-18T16:51:24.857Z,997.48
2018-01-18T16:53:22.312Z,997.47
2018-01-18T16:54:20.803Z,997.48
2018-01-18T16:56:16.798Z,997.53
2018-01-18T16:57:17.281Z,997.54
2018-01-18T16:59:12.711Z,997.49
2018-01-18T17:00:12.664Z,997.46
2018-01-18T17:02:09.141Z,997.39
2018-01-18T17:03:08.613Z,997.43
2018-01-18T17:05:05.070Z,997.39
2018-01-18T17:06:04.540Z,997.40
2018-01-18T17:08:00.482Z,997.39
2018-01-18T17:09:00.469Z,997.41
2018-01-18T17:10:56.398Z,997.46
2018-01-18T17:11:56.415Z,997.45
2018-01-18T17:14:00.546Z,997.49
2018-01-18T17:14:56.473Z,997.50
2018-01-18T17:16:51.253Z,997.47
2018-01-18T17:17:50.325Z,997.47
2018-01-18T17:19:47.189Z,997.54
2018-01-18T17:20:46.283Z,997.53
2018-01-18T17:22:46.125Z,997.54
2018-01-18T17:23:44.317Z,997.51
2018-01-18T17:25:41.187Z,997.54
2018-01-18T17:26:40.258Z,997.55
2018-01-18T17:28:36.204Z,997.57
2018-01-18T17:29:35.633Z,997.59
2018-01-18T17:31:31.838Z,997.62
2018-01-18T17:32:30.666Z,997.58
2018-01-18T17:34:27.584Z,997.61
2018-01-18T17:35:27.583Z,997.63
2018-01-18T17:37:26.218Z,997.68
2018-01-18T17:38:25.660Z,997.69
2018-01-18T17:40:23.555Z,997.72
2018-01-18T17:41:21.651Z,997.76
2018-01-18T17:43:19.082Z,997.72
2018-01-18T17:44:17.568Z,997.70
2018-01-18T17:46:13.530Z,997.76
2018-01-18T17:47:14.010Z,997.71
2018-01-18T17:49:09.417Z,997.65
2018-01-18T17:50:09.411Z,997.65
2018-01-18T17:52:05.349Z,997.61
2018-01-18T17:53:05.384Z,997.62
2018-01-18T17:55:01.302Z,997.61
2018-01-18T17:56:01.302Z,997.60
2018-01-18T17:57:57.235Z,997.58
2018-01-18T17:58:57.721Z,997.59
2018-01-18T18:00:54.197Z,997.57
2018-01-18T18:01:54.143Z,997.60
2018-01-18T18:03:50.571Z,997.58
2018-01-18T18:04:49.569Z,997.59
2018-01-18T18:06:51.096Z,997.61
2018-01-18T18:07:50.830Z,997.63
2018-01-18T18:09:47.296Z,997.59
2018-01-18T18:10:46.749Z,997.61
2018-01-18T18:12:45.239Z,997.58
2018-01-18T18:13:44.204Z,997.62
2018-01-18T18:15:41.012Z,997.61
2018-01-18T18:16:39.474Z,997.59
2018-01-18T18:18:35.451Z,997.68
2018-01-18T18:19:35.414Z,997.68
2018-01-18T18:21:31.874Z,997.76
2018-01-18T18:22:31.355Z,997.76
2018-01-18T18:24:27.316Z,997.77